Time;durP1;ratioP1;P1;durP2;ratioP2;P2;SDS_P1;SDS_P2;PMS_P1;PMS_P2;Temp;Humidity;BMP_temperature;BMP_pressure;BME280_temperature;BME280_humidity;BME280_pressure;Samples;Min_cycle;Max_cycle;Signal;HPM_P1;HPM_P2
2023/06/29 00:01:05;;;;;;;5.82;1.33;;;15.30;30.20;;;;;;5052473;28;20029;-73
2023/06/29 00:03:31;;;;;;;6.10;1.35;;;15.20;28.60;;;;;;5051796;28;20443;-73
2023/06/29 00:05:58;;;;;;;5.75;1.00;;;15.10;32.70;;;;;;5052467;28;20478;-73
2023/06/29 00:08:29;;;;;;;4.60;1.10;;;15.10;38.50;;;;;;5051195;28;20056;-73
2023/06/29 00:10:56;;;;;;;5.47;1.40;;;15.10;43.60;;;;;;5051990;28;20029;-73
2023/06/29 00:13:23;;;;;;;4.13;0.95;;;15.10;44.80;;;;;;5051282;28;20351;-74
2023/06/29 00:15:49;;;;;;;6.97;1.40;;;15.10;42.20;;;;;;5050734;28;20079;-73
2023/06/29 00:18:15;;;;;;;9.35;1.25;;;15.10;46.60;;;;;;5051602;28;20029;-73
2023/06/29 00:20:42;;;;;;;4.60;1.40;;;15.10;47.90;;;;;;5050965;28;20068;-73
2023/06/29 00:23:08;;;;;;;2.97;1.30;;;15.00;47.30;;;;;;5051523;28;20029;-73
2023/06/29 00:25:35;;;;;;;4.38;1.02;;;15.00;47.60;;;;;;5050937;28;20043;-73
2023/06/29 00:28:01;;;;;;;4.10;1.00;;;14.90;45.30;;;;;;5051479;28;20076;-72
2023/06/29 00:30:27;;;;;;;3.38;1.13;;;14.90;48.60;;;;;;5050773;28;20071;-73
2023/06/29 00:32:53;;;;;;;4.45;1.52;;;14.90;54.20;;;;;;5051408;28;20060;-73
2023/06/29 00:35:19;;;;;;;3.85;1.00;;;14.90;53.20;;;;;;5050847;28;20032;-73
2023/06/29 00:37:45;;;;;;;4.75;1.10;;;14.90;53.50;;;;;;5050963;28;20526;-73
2023/06/29 00:40:11;;;;;;;4.90;1.30;;;14.80;54.20;;;;;;5051260;28;20366;-73
2023/06/29 00:42:37;;;;;;;6.18;1.13;;;14.70;56.50;;;;;;5050436;28;20093;-73
2023/06/29 00:45:04;;;;;;;3.42;1.10;;;14.60;54.50;;;;;;5051241;28;20471;-73
2023/06/29 00:47:31;;;;;;;3.60;0.88;;;14.60;60.70;;;;;;5050300;28;20033;-73
2023/06/29 00:49:57;;;;;;;4.22;1.25;;;14.60;64.20;;;;;;5051225;28;20033;-72
2023/06/29 00:52:23;;;;;;;3.30;1.00;;;14.50;80.40;;;;;;5050559;28;20027;-74
2023/06/29 00:54:49;;;;;;;5.95;1.17;;;14.50;83.40;;;;;;5050456;28;20463;-73
2023/06/29 00:57:16;;;;;;;9.50;1.55;;;14.40;86.70;;;;;;5050771;28;20059;-73
2023/06/29 00:59:41;;;;;;;2.38;0.90;;;14.40;84.70;;;;;;5049982;28;20037;-72
2023/06/29 01:02:09;;;;;;;3.30;0.85;;;14.30;85.30;;;;;;5050869;28;20029;-73
2023/06/29 01:04:37;;;;;;;3.45;1.10;;;14.30;90.80;;;;;;5050474;28;20021;-73
2023/06/29 01:07:22;;;;;;;2.65;1.02;;;14.40;95.10;;;;;;5051035;28;20458;-73
2023/06/29 01:09:48;;;;;;;3.53;1.50;;;14.40;86.30;;;;;;5049097;28;20064;-73
2023/06/29 01:12:15;;;;;;;3.35;0.90;;;14.30;92.20;;;;;;5051152;28;20025;-73
2023/06/29 01:14:43;;;;;;;3.72;1.40;;;14.30;93.00;;;;;;5050232;28;20104;-73
2023/06/29 01:17:15;;;;;;;3.88;1.20;;;14.40;94.40;;;;;;5050497;28;20048;-73
2023/06/29 01:19:45;;;;;;;2.90;1.00;;;14.40;96.70;;;;;;5049673;28;20033;-73
2023/06/29 01:22:19;;;;;;;4.60;1.20;;;14.40;91.60;;;;;;5050803;28;20454;-73
2023/06/29 01:24:45;;;;;;;5.25;1.17;;;14.40;92.10;;;;;;5049859;28;20021;-73
2023/06/29 01:27:12;;;;;;;5.53;1.13;;;14.50;91.20;;;;;;5050116;28;20112;-72
2023/06/29 01:29:38;;;;;;;4.80;1.23;;;14.40;88.50;;;;;;5049520;28;20494;-72
2023/06/29 01:32:08;;;;;;;7.05;1.00;;;14.40;90.10;;;;;;5050491;28;20434;-72
2023/06/29 01:34:35;;;;;;;4.55;1.25;;;14.40;90.30;;;;;;5049919;28;20032;-73
2023/06/29 01:37:13;;;;;;;6.45;1.65;;;14.30;88.30;;;;;;5050399;28;20035;-72
2023/06/29 01:39:51;;;;;;;3.58;1.13;;;14.20;87.40;;;;;;5049505;28;20134;-73
2023/06/29 01:42:19;;;;;;;4.85;0.90;;;14.20;87.90;;;;;;5050465;28;20043;-72
2023/06/29 01:44:45;;;;;;;4.68;1.10;;;14.20;93.20;;;;;;5049560;28;20117;-73
2023/06/29 01:47:13;;;;;;;3.63;0.95;;;14.20;96.80;;;;;;5050010;28;20112;-73
2023/06/29 01:49:39;;;;;;;4.47;1.23;;;14.10;92.60;;;;;;5049535;28;20037;-73
2023/06/29 01:52:05;;;;;;;5.85;1.25;;;14.10;94.10;;;;;;5050457;28;20117;-73
2023/06/29 01:54:32;;;;;;;6.38;1.40;;;14.00;95.50;;;;;;5049853;28;20057;-73
2023/06/29 01:56:58;;;;;;;5.35;1.08;;;14.00;94.60;;;;;;5049986;28;20036;-73
2023/06/29 01:59:23;;;;;;;2.30;1.02;;;13.90;96.00;;;;;;5050293;28;20037;-72
2023/06/29 02:01:49;;;;;;;7.50;1.30;;;13.80;97.10;;;;;;5049637;28;20048;-72
2023/06/29 02:04:15;;;;;;;2.15;0.90;;;13.80;95.70;;;;;;5050324;28;20033;-72
2023/06/29 02:06:41;;;;;;;4.50;1.45;;;13.70;95.60;;;;;;5049689;28;20021;-73
2023/06/29 02:09:06;;;;;;;3.55;1.15;;;13.60;97.70;;;;;;5050312;28;20336;-72
2023/06/29 02:11:32;;;;;;;6.50;1.15;;;13.60;99.30;;;;;;5048300;28;20028;-73
2023/06/29 02:13:58;;;;;;;3.38;1.08;;;13.50;99.90;;;;;;5050799;28;20037;-72
2023/06/29 02:16:23;;;;;;;7.43;1.63;;;13.50;99.90;;;;;;5050176;28;20052;-72
2023/06/29 02:18:49;;;;;;;7.57;1.30;;;13.40;99.90;;;;;;5050155;28;20029;-72
2023/06/29 02:21:15;;;;;;;1.92;1.02;;;13.40;99.90;;;;;;5052873;28;20138;-72
2023/06/29 02:23:40;;;;;;;3.75;1.00;;;13.30;99.90;;;;;;5054031;28;20376;-73
2023/06/29 02:26:06;;;;;;;3.55;1.25;;;13.30;99.90;;;;;;5053942;28;20068;-72
2023/06/29 02:28:32;;;;;;;4.15;1.50;;;13.20;99.90;;;;;;5053426;28;20405;-73
2023/06/29 02:30:57;;;;;;;7.80;1.70;;;13.20;99.90;;;;;;5052626;28;20029;-73
2023/06/29 02:33:24;;;;;;;3.38;1.20;;;13.10;99.90;;;;;;5054007;28;20037;-72
2023/06/29 02:35:49;;;;;;;3.65;1.13;;;13.10;99.90;;;;;;5053620;28;20790;-72
2023/06/29 02:38:15;;;;;;;5.47;1.70;;;13.00;99.90;;;;;;5052252;28;20128;-72
2023/06/29 02:40:41;;;;;;;6.22;1.30;;;13.00;99.90;;;;;;5052970;28;20107;-73
2023/06/29 02:43:06;;;;;;;5.38;1.08;;;12.90;99.90;;;;;;5053554;28;20108;-72
2023/06/29 02:45:32;;;;;;;3.30;1.00;;;12.90;99.90;;;;;;5051663;28;20025;-73
2023/06/29 02:47:58;;;;;;;6.82;1.30;;;12.90;99.90;;;;;;5053933;28;20394;-72
2023/06/29 02:50:23;;;;;;;5.78;1.40;;;12.90;99.90;;;;;;5053524;28;20036;-72
2023/06/29 02:52:49;;;;;;;5.47;1.30;;;12.90;99.90;;;;;;5051268;28;20100;-73
2023/06/29 02:55:15;;;;;;;3.70;0.95;;;13.00;99.90;;;;;;5053238;28;20025;-73
2023/06/29 02:57:41;;;;;;;3.30;1.42;;;13.00;99.90;;;;;;5052880;28;20510;-73
2023/06/29 03:00:08;;;;;;;4.80;1.20;;;13.00;99.90;;;;;;5052157;28;20117;-72
2023/06/29 03:02:34;;;;;;;4.43;1.15;;;13.10;99.90;;;;;;5052862;28;20103;-73
2023/06/29 03:05:00;;;;;;;11.02;1.65;;;13.10;99.90;;;;;;5053465;28;20099;-72
2023/06/29 03:07:25;;;;;;;2.83;1.10;;;13.10;99.90;;;;;;5053455;28;20037;-72
2023/06/29 03:09:51;;;;;;;8.13;1.85;;;13.00;99.90;;;;;;5052673;28;20032;-73
2023/06/29 03:12:20;;;;;;;4.25;1.52;;;13.00;99.90;;;;;;5052771;28;20029;-72
2023/06/29 03:14:46;;;;;;;3.75;1.20;;;13.00;99.90;;;;;;5052456;28;20040;-73
2023/06/29 03:17:13;;;;;;;3.75;1.48;;;13.00;99.90;;;;;;5052933;28;20029;-73
2023/06/29 03:19:39;;;;;;;7.28;1.63;;;13.00;99.90;;;;;;5052437;28;20040;-73
2023/06/29 03:22:04;;;;;;;3.22;1.50;;;12.90;99.90;;;;;;5053052;28;20304;-72
2023/06/29 03:24:30;;;;;;;2.53;1.42;;;12.90;99.90;;;;;;5052586;28;20064;-73
2023/06/29 03:26:56;;;;;;;6.00;1.52;;;12.90;99.90;;;;;;5050987;28;20411;-73
2023/06/29 03:29:22;;;;;;;3.65;1.98;;;12.90;99.90;;;;;;5052447;28;20057;-73
2023/06/29 03:31:49;;;;;;;4.53;1.40;;;12.90;99.90;;;;;;5050687;28;20056;-73
2023/06/29 03:34:15;;;;;;;5.85;2.45;;;12.90;99.90;;;;;;5053032;28;20032;-72
2023/06/29 03:36:40;;;;;;;6.45;1.50;;;12.80;99.90;;;;;;5052311;28;20406;-72
2023/06/29 03:39:06;;;;;;;5.30;1.42;;;12.80;99.90;;;;;;5052274;28;20029;-72
2023/06/29 03:41:32;;;;;;;4.82;1.70;;;12.70;99.90;;;;;;5052420;28;20096;-73
2023/06/29 03:43:58;;;;;;;3.58;1.08;;;12.80;99.90;;;;;;5052062;28;20087;-72
2023/06/29 03:46:24;;;;;;;3.60;1.60;;;12.80;99.90;;;;;;5052622;28;20021;-73
2023/06/29 03:48:50;;;;;;;3.67;1.55;;;12.70;99.90;;;;;;5052351;28;20025;-72
2023/06/29 03:51:15;;;;;;;4.20;1.80;;;12.70;99.90;;;;;;5052375;28;20028;-72
2023/06/29 03:53:41;;;;;;;4.90;1.80;;;12.70;99.90;;;;;;5050321;28;20049;-73
2023/06/29 03:56:07;;;;;;;4.30;1.58;;;12.60;99.90;;;;;;5052443;28;20347;-73
2023/06/29 03:58:33;;;;;;;3.83;1.73;;;12.60;99.90;;;;;;5052552;28;20056;-73
2023/06/29 04:00:58;;;;;;;4.13;1.67;;;12.60;99.90;;;;;;5051866;28;20028;-73
2023/06/29 04:03:24;;;;;;;5.13;1.58;;;12.60;99.90;;;;;;5050352;28;20033;-73
2023/06/29 04:05:50;;;;;;;10.10;2.05;;;12.60;99.90;;;;;;5051833;28;20055;-72
2023/06/29 04:08:16;;;;;;;6.03;1.88;;;12.60;99.90;;;;;;5051946;28;20029;-73
2023/06/29 04:10:41;;;;;;;4.07;1.80;;;12.60;99.90;;;;;;5051374;28;20035;-73
2023/06/29 04:13:07;;;;;;;5.93;2.28;;;12.60;99.90;;;;;;5051642;28;20036;-72
2023/06/29 04:15:33;;;;;;;6.10;2.05;;;12.60;99.90;;;;;;5052444;28;20051;-72
2023/06/29 04:17:58;;;;;;;6.40;1.85;;;12.60;99.90;;;;;;5051234;28;20072;-72
2023/06/29 04:20:24;;;;;;;4.13;1.77;;;12.60;99.90;;;;;;5051670;28;20071;-72
2023/06/29 04:22:50;;;;;;;4.90;2.22;;;12.50;99.90;;;;;;5050789;28;20338;-72
2023/06/29 04:25:16;;;;;;;4.30;1.92;;;12.40;99.90;;;;;;5050899;28;20412;-72
2023/06/29 04:27:42;;;;;;;7.72;2.40;;;12.40;99.90;;;;;;5049208;28;20024;-73
2023/06/29 04:30:08;;;;;;;7.63;2.00;;;12.50;99.90;;;;;;5051133;28;20033;-72
2023/06/29 04:32:35;;;;;;;4.97;2.15;;;12.50;99.90;;;;;;5051441;28;20029;-72
2023/06/29 04:35:01;;;;;;;6.70;2.25;;;12.50;99.90;;;;;;5051163;28;20063;-72
2023/06/29 04:37:36;;;;;;;9.38;2.75;;;12.60;99.90;;;;;;5050978;28;20033;-72
2023/06/29 04:40:04;;;;;;;3.90;2.00;;;12.60;99.90;;;;;;5049906;28;20037;-72
2023/06/29 04:42:30;;;;;;;4.22;2.00;;;12.70;99.90;;;;;;5051125;28;20036;-72
2023/06/29 04:44:56;;;;;;;8.77;2.47;;;12.70;99.90;;;;;;5050529;28;20029;-73
2023/06/29 04:47:22;;;;;;;5.80;2.30;;;12.70;99.90;;;;;;5050682;28;20407;-72
2023/06/29 04:49:52;;;;;;;5.68;1.90;;;12.60;99.90;;;;;;5050807;28;20037;-72
2023/06/29 04:52:18;;;;;;;4.30;1.98;;;12.80;99.90;;;;;;5051153;28;20025;-72
2023/06/29 04:54:44;;;;;;;6.85;2.30;;;13.00;99.90;;;;;;5050232;28;20393;-73
2023/06/29 04:57:12;;;;;;;5.82;2.10;;;13.10;99.90;;;;;;5050671;28;20059;-72
2023/06/29 04:59:38;;;;;;;7.75;2.17;;;13.30;99.90;;;;;;5050355;28;20048;-74
2023/06/29 05:02:04;;;;;;;8.07;1.80;;;13.40;99.90;;;;;;5049218;28;20025;-73
2023/06/29 05:04:30;;;;;;;8.57;1.90;;;13.40;99.90;;;;;;5050640;28;20021;-72
2023/06/29 05:06:56;;;;;;;6.03;1.90;;;13.40;99.90;;;;;;5050550;28;20558;-73
2023/06/29 05:09:21;;;;;;;5.38;2.03;;;13.60;99.90;;;;;;5050653;28;20450;-72
2023/06/29 05:11:47;;;;;;;7.60;2.35;;;13.60;99.90;;;;;;5049953;28;20032;-72
2023/06/29 05:14:13;;;;;;;7.70;1.80;;;13.60;99.90;;;;;;5050848;28;20449;-72
2023/06/29 05:16:39;;;;;;;6.03;2.00;;;13.70;99.90;;;;;;5050331;28;20025;-74
2023/06/29 05:19:05;;;;;;;9.52;1.80;;;13.70;99.90;;;;;;5050276;28;20025;-72
2023/06/29 05:21:31;;;;;;;6.78;1.70;;;13.80;99.90;;;;;;5050459;28;20171;-72
2023/06/29 05:23:56;;;;;;;6.75;1.90;;;13.90;99.90;;;;;;5049718;28;20056;-72
2023/06/29 05:26:22;;;;;;;8.15;1.88;;;13.90;99.90;;;;;;5050529;28;20079;-72
2023/06/29 05:28:49;;;;;;;4.95;1.95;;;13.90;97.20;;;;;;5049070;28;20568;-72
2023/06/29 05:31:14;;;;;;;7.43;1.98;;;14.00;99.90;;;;;;5050393;28;20031;-73
2023/06/29 05:33:40;;;;;;;7.03;2.40;;;14.10;99.90;;;;;;5049669;28;20112;-74
2023/06/29 05:36:06;;;;;;;4.35;1.60;;;14.20;99.90;;;;;;5050500;28;20044;-73
2023/06/29 05:38:31;;;;;;;5.78;1.83;;;14.30;99.90;;;;;;5049660;28;20051;-72
2023/06/29 05:40:57;;;;;;;9.52;2.17;;;14.50;99.90;;;;;;5049456;28;20143;-73
2023/06/29 05:43:23;;;;;;;4.45;1.58;;;14.70;99.10;;;;;;5050184;28;20068;-73
2023/06/29 05:45:49;;;;;;;8.25;1.55;;;14.70;92.60;;;;;;5049745;28;20053;-73
2023/06/29 05:48:14;;;;;;;5.90;1.30;;;14.80;84.00;;;;;;5050304;28;20043;-73
2023/06/29 05:50:40;;;;;;;5.47;1.73;;;15.00;99.70;;;;;;5049822;28;20040;-74
2023/06/29 05:53:06;;;;;;;4.15;1.25;;;15.10;93.60;;;;;;5049795;28;20021;-73
2023/06/29 05:55:32;;;;;;;7.50;1.70;;;15.20;89.00;;;;;;5049502;28;20367;-73
2023/06/29 05:57:57;;;;;;;6.68;1.73;;;15.40;90.30;;;;;;5049414;28;20357;-73
2023/06/29 06:00:23;;;;;;;5.93;1.52;;;15.40;73.80;;;;;;5049526;28;20035;-72
2023/06/29 06:02:49;;;;;;;8.10;1.70;;;15.60;81.00;;;;;;5048015;28;20039;-72
2023/06/29 06:05:15;;;;;;;3.63;1.33;;;15.70;66.40;;;;;;5050256;28;20025;-73
2023/06/29 06:07:41;;;;;;;7.47;1.85;;;15.70;60.20;;;;;;5049791;28;20086;-74
2023/06/29 06:10:07;;;;;;;8.85;1.52;;;15.70;56.60;;;;;;5049031;28;20067;-73
2023/06/29 06:12:32;;;;;;;5.82;1.75;;;15.70;51.20;;;;;;5049758;28;20513;-73
2023/06/29 06:14:58;;;;;;;5.25;1.55;;;15.70;65.80;;;;;;5049022;28;20308;-73
2023/06/29 06:17:24;;;;;;;4.95;1.48;;;15.60;57.30;;;;;;5049421;28;20089;-72
2023/06/29 06:19:50;;;;;;;9.32;2.13;;;15.50;58.50;;;;;;5048952;28;20025;-73
2023/06/29 06:22:15;;;;;;;10.82;2.00;;;15.40;44.80;;;;;;5049798;28;20044;-73
2023/06/29 06:24:41;;;;;;;8.25;2.05;;;15.20;52.40;;;;;;5050512;28;20078;-73
2023/06/29 06:27:07;;;;;;;4.22;1.60;;;15.10;75.00;;;;;;5049222;28;20091;-73
2023/06/29 06:29:33;;;;;;;6.55;2.03;;;15.00;66.00;;;;;;5049387;28;20392;-72
2023/06/29 06:31:59;;;;;;;7.32;1.90;;;15.00;85.20;;;;;;5049137;28;20040;-73
2023/06/29 06:34:24;;;;;;;5.00;1.48;;;15.00;89.20;;;;;;5049597;28;20025;-73
2023/06/29 06:36:51;;;;;;;5.38;1.58;;;15.00;87.00;;;;;;5047681;28;20017;-73
2023/06/29 06:39:18;;;;;;;4.82;1.70;;;15.10;91.40;;;;;;5049667;28;20551;-72
2023/06/29 06:41:44;;;;;;;5.43;1.90;;;15.20;93.80;;;;;;5049117;28;20037;-74
2023/06/29 06:44:10;;;;;;;4.20;1.58;;;15.30;90.40;;;;;;5048835;28;20550;-73
2023/06/29 06:46:36;;;;;;;9.13;2.13;;;15.40;90.20;;;;;;5049526;28;20103;-73
2023/06/29 06:49:02;;;;;;;4.15;1.60;;;15.50;86.90;;;;;;5048678;28;20116;-73
2023/06/29 06:51:28;;;;;;;6.25;2.00;;;15.50;76.40;;;;;;5049062;28;20085;-73
2023/06/29 06:53:55;;;;;;;5.22;1.50;;;15.50;68.20;;;;;;5047411;28;20391;-73
2023/06/29 06:56:22;;;;;;;4.40;1.75;;;15.50;54.20;;;;;;5048937;28;20021;-73
2023/06/29 06:58:48;;;;;;;8.65;1.75;;;15.50;53.50;;;;;;5048204;28;20470;-73
2023/06/29 07:01:15;;;;;;;7.60;2.00;;;15.50;66.30;;;;;;5048568;28;20124;-72
2023/06/29 07:03:41;;;;;;;9.15;2.05;;;15.80;71.80;;;;;;5048633;28;20025;-73
2023/06/29 07:06:07;;;;;;;7.57;1.70;;;16.00;95.30;;;;;;5048242;28;20128;-73
2023/06/29 07:08:35;;;;;;;4.43;1.45;;;16.10;34.10;;;;;;5051743;28;20447;-73
2023/06/29 07:11:00;;;;;;;5.45;1.52;;;16.30;40.50;;;;;;5052186;28;20029;-73
2023/06/29 07:13:26;;;;;;;4.93;1.60;;;16.40;40.80;;;;;;5053011;28;20485;-72
2023/06/29 07:15:52;;;;;;;6.75;1.63;;;16.60;40.10;;;;;;5050852;28;20025;-73
2023/06/29 07:18:17;;;;;;;9.43;1.60;;;16.70;20.50;;;;;;5053159;28;20099;-72
2023/06/29 07:20:43;;;;;;;5.85;1.65;;;16.60;16.90;;;;;;5052445;28;20086;-72
2023/06/29 07:23:10;;;;;;;6.22;1.52;;;16.70;34.60;;;;;;5050731;28;20072;-72
2023/06/29 07:25:35;;;;;;;4.95;1.50;;;16.80;18.70;;;;;;5052366;28;20374;-73
2023/06/29 07:28:01;;;;;;;7.85;1.80;;;16.90;8.70;;;;;;5051720;28;20060;-72
2023/06/29 07:30:27;;;;;;;2.72;1.60;;;16.90;1.00;;;;;;5052644;28;20452;-73
2023/06/29 07:32:53;;;;;;;7.93;1.50;;;17.00;10.20;;;;;;5052125;28;20033;-73
2023/06/29 07:35:19;;;;;;;2.78;1.23;;;17.10;5.30;;;;;;5051272;28;20017;-73
2023/06/29 07:37:44;;;;;;;7.20;1.42;;;17.20;11.10;;;;;;5051223;28;20407;-73
2023/06/29 07:40:10;;;;;;;4.60;1.45;;;17.30;8.60;;;;;;5052026;28;20029;-73
2023/06/29 07:42:37;;;;;;;6.95;1.63;;;17.30;8.50;;;;;;5052557;28;20096;-72
2023/06/29 07:45:04;;;;;;;5.82;1.67;;;17.40;6.10;;;;;;5051807;28;20025;-73
2023/06/29 07:47:29;;;;;;;8.48;2.10;;;17.60;8.80;;;;;;5052169;28;20473;-73
2023/06/29 07:49:55;;;;;;;5.47;1.40;;;17.80;24.20;;;;;;5051131;28;20069;-73
2023/06/29 07:52:22;;;;;;;7.03;1.52;;;17.80;1.00;;;;;;5052194;28;20048;-73
2023/06/29 07:54:49;;;;;;;6.30;1.60;;;17.80;1.00;;;;;;5051788;28;20025;-75
2023/06/29 07:57:15;;;;;;;6.32;1.50;;;17.90;1.00;;;;;;5051854;28;20029;-73
2023/06/29 07:59:40;;;;;;;5.63;1.60;;;17.80;1.00;;;;;;5051464;28;20308;-74
2023/06/29 08:02:06;;;;;;;8.77;1.77;;;17.80;1.00;;;;;;5051248;28;20029;-73
2023/06/29 08:04:33;;;;;;;6.55;1.50;;;17.80;1.00;;;;;;5051758;28;20029;-73
2023/06/29 08:06:59;;;;;;;4.40;1.40;;;17.80;1.00;;;;;;5051608;28;20024;-73
2023/06/29 08:09:24;;;;;;;8.90;1.60;;;17.80;1.00;;;;;;5051965;28;20330;-73
2023/06/29 08:11:50;;;;;;;6.03;1.58;;;17.80;1.00;;;;;;5051280;28;20029;-76
2023/06/29 08:14:16;;;;;;;5.10;1.50;;;17.80;1.00;;;;;;5051579;28;20485;-73
2023/06/29 08:16:42;;;;;;;8.52;1.70;;;17.80;1.00;;;;;;5051342;28;20025;-72
2023/06/29 08:19:07;;;;;;;4.50;1.23;;;17.90;19.50;;;;;;5050505;28;20068;-73
2023/06/29 08:21:33;;;;;;;6.70;1.67;;;18.00;1.00;;;;;;5051829;28;20029;-73
2023/06/29 08:23:59;;;;;;;6.63;1.70;;;17.90;1.00;;;;;;5051131;28;20032;-73
2023/06/29 08:26:25;;;;;;;5.32;1.83;;;17.90;1.00;;;;;;5051641;28;20320;-73
2023/06/29 08:28:51;;;;;;;7.18;1.48;;;17.70;1.00;;;;;;5051640;28;20560;-76
2023/06/29 08:31:18;;;;;;;8.45;1.58;;;17.80;1.00;;;;;;5051569;28;20044;-73
2023/06/29 08:33:45;;;;;;;3.00;1.30;;;18.00;1.00;;;;;;5051531;28;20442;-73
2023/06/29 08:36:11;;;;;;;5.13;1.60;;;18.00;1.00;;;;;;5050592;28;20032;-73
2023/06/29 08:38:36;;;;;;;6.53;1.48;;;18.20;1.00;;;;;;5051109;28;20327;-73
2023/06/29 08:41:04;;;;;;;7.25;1.77;;;18.30;1.00;;;;;;5050241;28;20054;-74
2023/06/29 08:43:30;;;;;;;6.88;1.70;;;18.40;1.00;;;;;;5049172;28;20482;-73
2023/06/29 08:45:56;;;;;;;6.57;1.50;;;18.50;1.00;;;;;;5049766;28;20048;-74
2023/06/29 08:48:23;;;;;;;5.90;1.40;;;18.70;1.00;;;;;;5049883;28;20036;-73
2023/06/29 08:50:55;;;;;;;5.00;1.50;;;18.80;99.90;;;;;;5048488;28;20040;-74
2023/06/29 08:53:21;;;;;;;5.95;1.60;;;18.90;99.90;;;;;;5050266;28;20052;-74
2023/06/29 08:55:48;;;;;;;4.63;1.45;;;19.00;99.90;;;;;;5050112;28;20437;-73
2023/06/29 08:58:14;;;;;;;6.40;1.45;;;19.00;99.90;;;;;;5049195;28;20051;-74
2023/06/29 09:00:41;;;;;;;6.20;2.00;;;19.00;99.90;;;;;;5049617;28;20334;-74
2023/06/29 09:03:08;;;;;;;3.92;1.13;;;19.10;99.90;;;;;;5048364;28;20132;-74
2023/06/29 09:05:36;;;;;;;4.60;1.23;;;19.10;99.90;;;;;;5050157;28;20044;-73
2023/06/29 09:08:02;;;;;;;4.78;1.42;;;18.90;99.90;;;;;;5049420;28;20024;-73
2023/06/29 09:10:28;;;;;;;6.03;1.67;;;19.10;99.90;;;;;;5049634;28;20025;-73
2023/06/29 09:12:54;;;;;;;4.65;1.65;;;19.20;99.90;;;;;;5049239;28;20422;-75
2023/06/29 09:15:25;;;;;;;4.45;1.42;;;19.20;99.90;;;;;;5048036;28;20036;-73
2023/06/29 09:17:55;;;;;;;3.30;1.60;;;19.00;99.90;;;;;;5049484;28;20082;-73
2023/06/29 09:20:21;;;;;;;3.00;1.17;;;19.00;99.90;;;;;;5049014;28;20048;-73
2023/06/29 09:22:52;;;;;;;4.78;1.83;;;18.90;99.90;;;;;;5049363;28;20101;-73
2023/06/29 09:25:19;;;;;;;3.53;1.48;;;19.10;99.90;;;;;;5049065;28;20479;-73
2023/06/29 09:27:44;;;;;;;9.02;1.45;;;19.40;99.90;;;;;;5049452;28;20033;-73
2023/06/29 09:30:18;;;;;;;6.85;1.70;;;19.40;99.90;;;;;;5047957;28;20355;-73
2023/06/29 09:32:44;;;;;;;4.95;1.40;;;19.60;99.90;;;;;;5049468;28;20056;-73
2023/06/29 09:35:10;;;;;;;9.55;1.35;;;19.70;99.90;;;;;;5048281;28;20087;-73
2023/06/29 09:37:36;;;;;;;6.35;1.33;;;19.60;99.90;;;;;;5049101;28;20021;-72
2023/06/29 09:40:12;;;;;;;3.00;1.23;;;19.50;99.90;;;;;;5048376;28;20032;-73
2023/06/29 09:42:39;;;;;;;4.20;1.30;;;19.40;99.90;;;;;;5049056;28;20040;-73
2023/06/29 09:45:12;;;;;;;4.47;1.42;;;19.20;99.90;;;;;;5048535;28;20027;-73
2023/06/29 09:47:48;;;;;;;3.15;1.10;;;19.10;99.90;;;;;;5049225;28;20032;-73
2023/06/29 09:50:22;;;;;;;6.32;1.67;;;19.00;99.90;;;;;;5048797;28;20040;-73
2023/06/29 09:52:51;;;;;;;5.00;1.38;;;18.90;99.90;;;;;;5049277;28;20044;-73
2023/06/29 09:55:17;;;;;;;3.92;1.42;;;18.80;99.90;;;;;;5048220;28;20024;-73
2023/06/29 09:57:49;;;;;;;5.03;1.38;;;18.80;99.90;;;;;;5048626;28;20100;-73
2023/06/29 10:00:15;;;;;;;4.32;1.45;;;18.70;99.90;;;;;;5048658;28;20741;-73
2023/06/29 10:02:42;;;;;;;5.15;1.65;;;18.70;99.90;;;;;;5048987;28;20025;-73
2023/06/29 10:05:11;;;;;;;5.07;1.52;;;18.70;99.90;;;;;;5048740;28;20397;-73
2023/06/29 10:07:41;;;;;;;9.07;1.50;;;18.70;99.90;;;;;;5049366;28;20017;-73
2023/06/29 10:10:11;;;;;;;4.47;1.05;;;18.80;99.90;;;;;;5048527;28;20053;-73
2023/06/29 10:12:36;;;;;;;4.65;1.52;;;19.10;99.90;;;;;;5048993;28;20078;-73
2023/06/29 10:15:09;;;;;;;3.65;1.20;;;19.40;99.90;;;;;;5048203;28;20097;-74
2023/06/29 10:17:49;;;;;;;6.55;1.20;;;19.70;99.90;;;;;;5049008;28;20082;-76
2023/06/29 10:20:17;;;;;;;4.45;1.10;;;19.70;99.90;;;;;;5048280;28;20104;-74
2023/06/29 10:22:44;;;;;;;4.22;1.40;;;19.50;99.90;;;;;;5048757;28;20056;-74
2023/06/29 10:25:17;;;;;;;3.88;1.48;;;19.40;99.90;;;;;;5048405;28;20053;-75
2023/06/29 10:27:43;;;;;;;4.03;1.10;;;19.30;99.90;;;;;;5048616;28;20033;-75
2023/06/29 10:30:10;;;;;;;6.60;1.30;;;19.30;99.90;;;;;;5047939;28;20119;-75
2023/06/29 10:32:37;;;;;;;5.32;1.40;;;19.30;99.90;;;;;;5047202;28;20071;-74
2023/06/29 10:35:13;;;;;;;3.35;1.50;;;19.40;99.90;;;;;;5048144;28;20036;-75
2023/06/29 10:37:42;;;;;;;5.78;1.55;;;19.40;99.90;;;;;;5048214;28;20064;-75
2023/06/29 10:40:22;;;;;;;3.85;1.30;;;19.50;99.90;;;;;;5047834;28;20041;-75
2023/06/29 10:42:53;;;;;;;3.15;1.30;;;19.30;99.90;;;;;;5051400;28;20097;-75
2023/06/29 10:45:20;;;;;;;4.20;1.30;;;19.00;99.90;;;;;;5051495;28;20032;-75
2023/06/29 10:48:06;;;;;;;4.60;1.50;;;18.90;99.90;;;;;;5052734;28;20086;-74
2023/06/29 10:50:35;;;;;;;6.72;1.45;;;18.70;99.90;;;;;;5052359;28;20049;-75
2023/06/29 10:53:05;;;;;;;3.97;1.52;;;18.60;99.90;;;;;;5052234;28;20025;-75
2023/06/29 10:55:51;;;;;;;5.55;1.77;;;18.50;99.90;;;;;;5053138;28;20032;-75
2023/06/29 10:58:28;;;;;;;3.85;1.38;;;18.60;99.90;;;;;;5051971;28;20025;-75
2023/06/29 11:00:55;;;;;;;4.53;1.65;;;18.40;99.90;;;;;;5052420;28;20110;-75
2023/06/29 11:03:23;;;;;;;8.98;1.88;;;18.40;99.90;;;;;;5052118;28;20025;-74
2023/06/29 11:05:53;;;;;;;4.63;1.30;;;18.60;99.90;;;;;;5052385;28;20465;-74
2023/06/29 11:08:23;;;;;;;3.20;1.20;;;18.90;99.90;;;;;;5050733;28;20649;-74
2023/06/29 11:10:49;;;;;;;2.60;1.00;;;19.10;99.90;;;;;;5053023;28;20462;-74
2023/06/29 11:13:18;;;;;;;2.97;1.17;;;19.30;99.90;;;;;;5052281;28;20123;-73
2023/06/29 11:15:50;;;;;;;3.33;1.00;;;19.40;99.90;;;;;;5052751;28;20032;-75
2023/06/29 11:18:16;;;;;;;4.20;1.17;;;19.40;99.90;;;;;;5052346;28;20354;-74
2023/06/29 11:20:42;;;;;;;3.72;1.60;;;19.60;99.90;;;;;;5053012;28;20033;-74
2023/06/29 11:23:07;;;;;;;3.65;1.00;;;19.70;99.90;;;;;;5050546;28;20045;-74
2023/06/29 11:25:35;;;;;;;3.58;1.23;;;19.80;99.90;;;;;;5052664;28;20029;-74
2023/06/29 11:28:01;;;;;;;3.28;1.30;;;19.90;99.90;;;;;;5052128;28;20076;-75
2023/06/29 11:30:27;;;;;;;2.67;1.15;;;20.00;99.90;;;;;;5051146;28;20029;-74
2023/06/29 11:32:53;;;;;;;5.13;1.35;;;20.20;99.90;;;;;;5050621;28;20120;-74
2023/06/29 11:35:21;;;;;;;5.75;1.20;;;20.10;99.90;;;;;;5051981;28;20044;-74
2023/06/29 11:37:56;;;;;;;5.95;1.23;;;20.30;99.90;;;;;;5052566;28;20086;-74
2023/06/29 11:40:23;;;;;;;4.53;1.20;;;20.40;99.90;;;;;;5051054;28;20131;-74
2023/06/29 11:42:50;;;;;;;4.45;1.48;;;20.50;99.90;;;;;;5051559;28;20028;-74
2023/06/29 11:45:17;;;;;;;2.92;0.95;;;20.60;99.90;;;;;;5049422;28;20033;-74
2023/06/29 11:47:46;;;;;;;4.88;1.23;;;20.60;99.90;;;;;;5051320;28;20029;-74
2023/06/29 11:50:12;;;;;;;5.13;1.80;;;20.70;99.90;;;;;;5050835;28;20029;-74
2023/06/29 11:52:39;;;;;;;3.53;1.30;;;20.70;99.90;;;;;;5050719;28;20509;-74
2023/06/29 11:55:08;;;;;;;3.67;1.30;;;20.60;99.90;;;;;;5050444;28;20477;-75
2023/06/29 11:57:36;;;;;;;6.15;1.20;;;20.50;99.90;;;;;;5051425;28;20155;-74
2023/06/29 12:00:23;;;;;;;5.15;1.70;;;20.20;99.90;;;;;;5050905;28;20037;-75
2023/06/29 12:02:49;;;;;;;4.57;1.23;;;20.00;99.90;;;;;;5050906;28;20048;-73
2023/06/29 12:05:14;;;;;;;3.20;1.05;;;19.70;99.90;;;;;;5050204;28;20025;-73
2023/06/29 12:07:47;;;;;;;3.35;1.30;;;19.60;99.90;;;;;;5050784;28;20060;-74
2023/06/29 12:10:19;;;;;;;5.50;1.45;;;19.70;99.90;;;;;;5050521;28;20318;-73
2023/06/29 12:12:55;;;;;;;2.30;1.30;;;19.90;99.90;;;;;;5050318;28;20086;-73
2023/06/29 12:15:22;;;;;;;2.75;1.02;;;20.10;99.90;;;;;;5048163;28;20591;-74
2023/06/29 12:17:53;;;;;;;3.70;1.40;;;20.10;99.90;;;;;;5050473;28;20029;-73
2023/06/29 12:20:21;;;;;;;10.98;1.50;;;20.00;99.90;;;;;;5050379;28;20055;-74
2023/06/29 12:22:48;;;;;;;2.97;1.20;;;19.90;99.90;;;;;;5049967;28;20035;-74
2023/06/29 12:25:16;;;;;;;3.60;1.35;;;19.70;99.90;;;;;;5049788;28;20025;-73
2023/06/29 12:27:44;;;;;;;5.18;1.20;;;19.50;99.90;;;;;;5048868;28;20036;-73
2023/06/29 12:30:14;;;;;;;3.03;1.00;;;19.50;99.90;;;;;;5050403;28;20106;-74
2023/06/29 12:32:44;;;;;;;2.05;0.98;;;19.40;99.90;;;;;;5051229;28;20484;-74
2023/06/29 12:35:10;;;;;;;5.38;1.40;;;19.40;99.90;;;;;;5050723;28;20033;-74
2023/06/29 12:37:36;;;;;;;3.20;1.67;;;19.40;99.90;;;;;;5050841;28;20053;-74
2023/06/29 12:40:04;;;;;;;4.57;1.30;;;19.50;99.90;;;;;;5051131;28;20064;-74
2023/06/29 12:42:30;;;;;;;5.85;1.55;;;19.50;99.90;;;;;;5050824;28;20040;-74
2023/06/29 12:44:56;;;;;;;4.93;1.67;;;19.80;99.90;;;;;;5050722;28;20029;-74
2023/06/29 12:47:21;;;;;;;3.85;1.52;;;20.10;99.90;;;;;;5050196;28;20497;-74